sensor_id;sensor_type;location;lat;lon;timestamp;pressure;altitude;pressure_sealevel;temperature;humidity
58373;BME280;44177;43.356;27.672;2023-04-02T00:07:56;96892.94;;;7.27;88.62
58373;BME280;44177;43.356;27.672;2023-04-02T00:10:36;96904.03;;;7.38;88.55
58373;BME280;44177;43.356;27.672;2023-04-02T00:13:05;96900.81;;;7.32;88.20
58373;BME280;44177;43.356;27.672;2023-04-02T00:15:45;96915.44;;;7.47;87.05
58373;BME280;44177;43.356;27.672;2023-04-02T00:18:16;96914.28;;;7.48;87.23
58373;BME280;44177;43.356;27.672;2023-04-02T00:20:46;96915.56;;;7.54;87.29
58373;BME280;44177;43.356;27.672;2023-04-02T00:23:13;96910.56;;;7.56;87.16
58373;BME280;44177;43.356;27.672;2023-04-02T00:25:42;96919.09;;;7.55;86.93
58373;BME280;44177;43.356;27.672;2023-04-02T00:28:21;96899.66;;;7.53;86.65
58373;BME280;44177;43.356;27.672;2023-04-02T00:30:55;96894.28;;;7.56;86.05
58373;BME280;44177;43.356;27.672;2023-04-02T00:33:25;96883.16;;;7.42;85.43
58373;BME280;44177;43.356;27.672;2023-04-02T00:35:52;96881.16;;;7.39;85.34
58373;BME280;44177;43.356;27.672;2023-04-02T00:40:53;96885.31;;;7.33;86.58
58373;BME280;44177;43.356;27.672;2023-04-02T00:43:20;96885.84;;;7.22;86.75
58373;BME280;44177;43.356;27.672;2023-04-02T00:45:48;96887.72;;;7.18;87.12
58373;BME280;44177;43.356;27.672;2023-04-02T00:50:59;96875.94;;;7.10;87.40
58373;BME280;44177;43.356;27.672;2023-04-02T00:53:29;96877.78;;;7.06;87.59
58373;BME280;44177;43.356;27.672;2023-04-02T00:55:57;96883.00;;;7.15;87.59
58373;BME280;44177;43.356;27.672;2023-04-02T00:58:32;96876.28;;;7.09;87.13
58373;BME280;44177;43.356;27.672;2023-04-02T01:00:59;96874.31;;;7.06;87.00
58373;BME280;44177;43.356;27.672;2023-04-02T01:03:31;96874.72;;;7.08;87.46
58373;BME280;44177;43.356;27.672;2023-04-02T01:06:07;96850.53;;;6.99;86.92
58373;BME280;44177;43.356;27.672;2023-04-02T01:08:49;96861.44;;;7.03;87.01
58373;BME280;44177;43.356;27.672;2023-04-02T01:14:18;96886.56;;;7.00;87.67
58373;BME280;44177;43.356;27.672;2023-04-02T01:22:53;96890.13;;;7.04;87.66
58373;BME280;44177;43.356;27.672;2023-04-02T01:25:39;96894.75;;;7.03;87.94
58373;BME280;44177;43.356;27.672;2023-04-02T01:30:39;96906.03;;;7.05;87.60
58373;BME280;44177;43.356;27.672;2023-04-02T01:33:06;96902.13;;;7.03;88.05
58373;BME280;44177;43.356;27.672;2023-04-02T01:35:35;96903.34;;;7.05;87.85
58373;BME280;44177;43.356;27.672;2023-04-02T01:41:21;96902.41;;;6.98;88.08
58373;BME280;44177;43.356;27.672;2023-04-02T01:44:08;96903.97;;;6.99;88.33
58373;BME280;44177;43.356;27.672;2023-04-02T01:46:39;96901.97;;;6.95;88.25
58373;BME280;44177;43.356;27.672;2023-04-02T01:49:14;96907.75;;;6.94;88.27
58373;BME280;44177;43.356;27.672;2023-04-02T01:51:45;96899.38;;;6.83;88.40
58373;BME280;44177;43.356;27.672;2023-04-02T01:54:14;96903.72;;;6.88;88.23
58373;BME280;44177;43.356;27.672;2023-04-02T01:56:41;96916.94;;;6.89;88.42
58373;BME280;44177;43.356;27.672;2023-04-02T01:59:09;96912.31;;;6.90;87.89
58373;BME280;44177;43.356;27.672;2023-04-02T02:01:48;96913.88;;;6.91;87.74
58373;BME280;44177;43.356;27.672;2023-04-02T02:04:16;96905.22;;;6.85;87.81
58373;BME280;44177;43.356;27.672;2023-04-02T02:06:43;96874.72;;;6.72;87.96
58373;BME280;44177;43.356;27.672;2023-04-02T02:09:16;96923.22;;;6.93;88.06
58373;BME280;44177;43.356;27.672;2023-04-02T02:11:47;96918.53;;;6.90;88.37
58373;BME280;44177;43.356;27.672;2023-04-02T02:14:18;96927.00;;;6.89;88.36
58373;BME280;44177;43.356;27.672;2023-04-02T02:16:45;96926.91;;;6.85;88.62
58373;BME280;44177;43.356;27.672;2023-04-02T02:19:19;96936.69;;;6.90;88.33
58373;BME280;44177;43.356;27.672;2023-04-02T02:21:53;96939.34;;;6.86;88.49
58373;BME280;44177;43.356;27.672;2023-04-02T02:24:27;96943.34;;;6.92;87.93
58373;BME280;44177;43.356;27.672;2023-04-02T02:27:05;96948.34;;;6.90;87.71
58373;BME280;44177;43.356;27.672;2023-04-02T02:29:36;96949.63;;;6.97;87.49
58373;BME280;44177;43.356;27.672;2023-04-02T02:32:03;96949.78;;;7.04;87.37
58373;BME280;44177;43.356;27.672;2023-04-02T02:34:39;96937.53;;;7.10;86.67
58373;BME280;44177;43.356;27.672;2023-04-02T02:37:27;96953.25;;;7.20;86.81
58373;BME280;44177;43.356;27.672;2023-04-02T02:39:56;96932.34;;;7.21;86.09
58373;BME280;44177;43.356;27.672;2023-04-02T02:42:39;96940.34;;;7.33;85.83
58373;BME280;44177;43.356;27.672;2023-04-02T02:45:12;96946.25;;;7.39;85.87
58373;BME280;44177;43.356;27.672;2023-04-02T02:47:41;96935.06;;;7.40;85.79
58373;BME280;44177;43.356;27.672;2023-04-02T02:50:16;96935.84;;;7.41;85.76
58373;BME280;44177;43.356;27.672;2023-04-02T02:52:45;96930.34;;;7.37;85.77
58373;BME280;44177;43.356;27.672;2023-04-02T02:55:15;96936.59;;;7.38;85.84
58373;BME280;44177;43.356;27.672;2023-04-02T02:57:57;96940.06;;;7.38;85.96
58373;BME280;44177;43.356;27.672;2023-04-02T03:00:25;96932.00;;;7.42;86.27
58373;BME280;44177;43.356;27.672;2023-04-02T03:02:52;96949.84;;;7.43;86.47
58373;BME280;44177;43.356;27.672;2023-04-02T03:05:24;96937.88;;;7.44;85.93
58373;BME280;44177;43.356;27.672;2023-04-02T03:07:52;96948.41;;;7.49;85.77
58373;BME280;44177;43.356;27.672;2023-04-02T03:13:24;96936.19;;;7.59;85.58
58373;BME280;44177;43.356;27.672;2023-04-02T03:16:13;96945.66;;;7.65;85.33
58373;BME280;44177;43.356;27.672;2023-04-02T03:19:04;96938.28;;;7.66;85.23
58373;BME280;44177;43.356;27.672;2023-04-02T03:21:40;96940.22;;;7.65;85.02
58373;BME280;44177;43.356;27.672;2023-04-02T03:24:29;96942.44;;;7.59;85.61
58373;BME280;44177;43.356;27.672;2023-04-02T03:27:17;96951.94;;;7.69;85.16
58373;BME280;44177;43.356;27.672;2023-04-02T03:30:04;96957.00;;;7.71;85.17
58373;BME280;44177;43.356;27.672;2023-04-02T03:32:36;96945.06;;;7.75;85.15
58373;BME280;44177;43.356;27.672;2023-04-02T03:38:10;96939.56;;;7.72;84.58
58373;BME280;44177;43.356;27.672;2023-04-02T03:40:41;96939.56;;;7.72;84.64
58373;BME280;44177;43.356;27.672;2023-04-02T03:43:20;96932.00;;;7.62;84.65
58373;BME280;44177;43.356;27.672;2023-04-02T03:45:52;96942.38;;;7.56;85.08
58373;BME280;44177;43.356;27.672;2023-04-02T03:48:26;96936.88;;;7.52;84.99
58373;BME280;44177;43.356;27.672;2023-04-02T03:51:20;96940.34;;;7.53;85.11
58373;BME280;44177;43.356;27.672;2023-04-02T03:53:48;96945.34;;;7.51;85.07
58373;BME280;44177;43.356;27.672;2023-04-02T03:56:43;96946.84;;;7.48;85.57
58373;BME280;44177;43.356;27.672;2023-04-02T04:01:49;96946.84;;;7.48;84.97
58373;BME280;44177;43.356;27.672;2023-04-02T04:04:18;96956.84;;;7.44;84.91
58373;BME280;44177;43.356;27.672;2023-04-02T04:06:46;96970.50;;;7.48;84.73
58373;BME280;44177;43.356;27.672;2023-04-02T04:09:34;96980.00;;;7.57;84.47
58373;BME280;44177;43.356;27.672;2023-04-02T04:12:45;96987.78;;;7.59;84.48
58373;BME280;44177;43.356;27.672;2023-04-02T04:23:35;96991.28;;;7.79;83.65
58373;BME280;44177;43.356;27.672;2023-04-02T04:28:59;96970.44;;;7.83;82.82
58373;BME280;44177;43.356;27.672;2023-04-02T04:31:49;96985.78;;;7.95;82.82
58373;BME280;44177;43.356;27.672;2023-04-02T04:34:24;96978.84;;;7.98;82.69
58373;BME280;44177;43.356;27.672;2023-04-02T04:36:58;96974.63;;;8.00;82.22
58373;BME280;44177;43.356;27.672;2023-04-02T04:39:56;96971.25;;;8.07;82.47
58373;BME280;44177;43.356;27.672;2023-04-02T04:42:29;96981.25;;;8.03;82.39
58373;BME280;44177;43.356;27.672;2023-04-02T04:48:24;96968.94;;;8.09;82.75
58373;BME280;44177;43.356;27.672;2023-04-02T04:50:53;96981.41;;;8.10;82.77
58373;BME280;44177;43.356;27.672;2023-04-02T04:53:25;96970.66;;;8.17;82.45
58373;BME280;44177;43.356;27.672;2023-04-02T04:55:56;96985.09;;;8.21;82.90
58373;BME280;44177;43.356;27.672;2023-04-02T04:58:51;96987.50;;;8.27;83.04
58373;BME280;44177;43.356;27.672;2023-04-02T05:01:23;96996.22;;;8.36;83.30
58373;BME280;44177;43.356;27.672;2023-04-02T05:09:36;96999.47;;;8.65;82.54
58373;BME280;44177;43.356;27.672;2023-04-02T05:17:38;97009.31;;;8.73;82.63
58373;BME280;44177;43.356;27.672;2023-04-02T05:20:12;97032.34;;;8.79;82.48
58373;BME280;44177;43.356;27.672;2023-04-02T05:25:14;97006.25;;;9.01;81.93
58373;BME280;44177;43.356;27.672;2023-04-02T05:27:49;97015.00;;;9.14;80.83
58373;BME280;44177;43.356;27.672;2023-04-02T05:32:48;97008.69;;;9.07;80.13
58373;BME280;44177;43.356;27.672;2023-04-02T05:35:18;97030.19;;;9.15;78.84
58373;BME280;44177;43.356;27.672;2023-04-02T05:37:45;97045.38;;;9.16;79.89
58373;BME280;44177;43.356;27.672;2023-04-02T05:40:22;97043.19;;;9.26;79.27
58373;BME280;44177;43.356;27.672;2023-04-02T05:42:49;97062.41;;;9.13;79.11
58373;BME280;44177;43.356;27.672;2023-04-02T05:45:36;97063.94;;;9.11;79.34
58373;BME280;44177;43.356;27.672;2023-04-02T05:48:20;97062.06;;;9.15;78.89
58373;BME280;44177;43.356;27.672;2023-04-02T05:50:50;97061.53;;;9.06;79.61
58373;BME280;44177;43.356;27.672;2023-04-02T05:53:40;97060.66;;;9.01;80.00
58373;BME280;44177;43.356;27.672;2023-04-02T05:58:56;97063.16;;;9.10;80.00
58373;BME280;44177;43.356;27.672;2023-04-02T06:01:41;97067.50;;;9.15;79.18
58373;BME280;44177;43.356;27.672;2023-04-02T06:07:13;97068.88;;;9.28;79.44
58373;BME280;44177;43.356;27.672;2023-04-02T06:10:17;97076.75;;;9.37;79.80
58373;BME280;44177;43.356;27.672;2023-04-02T06:12:54;97075.25;;;9.40;79.29
58373;BME280;44177;43.356;27.672;2023-04-02T06:15:23;97082.38;;;9.48;78.21
58373;BME280;44177;43.356;27.672;2023-04-02T06:17:56;97071.56;;;9.55;77.95
58373;BME280;44177;43.356;27.672;2023-04-02T06:20:23;97085.56;;;9.54;78.61
58373;BME280;44177;43.356;27.672;2023-04-02T06:22:57;97083.00;;;9.64;78.14
58373;BME280;44177;43.356;27.672;2023-04-02T06:25:28;97091.91;;;9.61;78.20
58373;BME280;44177;43.356;27.672;2023-04-02T06:27:57;97096.88;;;9.56;78.76
58373;BME280;44177;43.356;27.672;2023-04-02T06:30:31;97085.31;;;9.62;78.83
58373;BME280;44177;43.356;27.672;2023-04-02T06:32:57;97101.47;;;9.78;78.75
58373;BME280;44177;43.356;27.672;2023-04-02T06:35:23;97088.34;;;9.84;78.65
58373;BME280;44177;43.356;27.672;2023-04-02T06:37:51;97084.09;;;9.87;77.79
58373;BME280;44177;43.356;27.672;2023-04-02T06:42:53;97079.06;;;9.89;77.76
58373;BME280;44177;43.356;27.672;2023-04-02T06:45:29;97082.75;;;10.04;77.75
58373;BME280;44177;43.356;27.672;2023-04-02T06:47:58;97086.00;;;10.17;77.96
58373;BME280;44177;43.356;27.672;2023-04-02T06:50:40;97082.78;;;10.38;77.94
58373;BME280;44177;43.356;27.672;2023-04-02T06:53:36;97096.13;;;10.47;76.58
58373;BME280;44177;43.356;27.672;2023-04-02T06:59:08;97099.47;;;10.70;75.93
58373;BME280;44177;43.356;27.672;2023-04-02T07:01:40;97111.69;;;10.80;75.91
58373;BME280;44177;43.356;27.672;2023-04-02T07:04:08;97096.16;;;10.88;74.47
58373;BME280;44177;43.356;27.672;2023-04-02T07:06:34;97108.53;;;11.19;73.40
58373;BME280;44177;43.356;27.672;2023-04-02T07:08:59;97104.16;;;11.60;72.49
58373;BME280;44177;43.356;27.672;2023-04-02T07:11:25;97087.00;;;11.66;72.10
58373;BME280;44177;43.356;27.672;2023-04-02T07:13:51;97100.44;;;11.90;71.13
58373;BME280;44177;43.356;27.672;2023-04-02T07:16:19;97114.56;;;11.40;72.09
58373;BME280;44177;43.356;27.672;2023-04-02T07:18:45;97110.00;;;11.10;72.48
58373;BME280;44177;43.356;27.672;2023-04-02T07:21:11;97077.84;;;10.88;73.65
58373;BME280;44177;43.356;27.672;2023-04-02T07:23:37;97106.09;;;10.69;74.48
58373;BME280;44177;43.356;27.672;2023-04-02T07:26:04;97112.50;;;10.50;76.16
58373;BME280;44177;43.356;27.672;2023-04-02T07:28:29;97110.06;;;10.38;76.61
58373;BME280;44177;43.356;27.672;2023-04-02T07:30:55;97122.00;;;10.30;76.30
58373;BME280;44177;43.356;27.672;2023-04-02T07:33:23;97130.38;;;10.14;76.41
58373;BME280;44177;43.356;27.672;2023-04-02T07:35:51;97122.38;;;9.98;77.53
58373;BME280;44177;43.356;27.672;2023-04-02T07:38:16;97129.06;;;10.04;77.88
58373;BME280;44177;43.356;27.672;2023-04-02T07:40:42;97141.47;;;10.01;78.05
58373;BME280;44177;43.356;27.672;2023-04-02T07:43:07;97139.28;;;10.10;78.43
58373;BME280;44177;43.356;27.672;2023-04-02T07:45:33;97140.09;;;10.15;78.49
58373;BME280;44177;43.356;27.672;2023-04-02T07:48:10;97147.63;;;10.25;78.17
58373;BME280;44177;43.356;27.672;2023-04-02T07:50:36;97144.19;;;10.28;77.72
58373;BME280;44177;43.356;27.672;2023-04-02T07:53:02;97152.03;;;10.33;77.69
58373;BME280;44177;43.356;27.672;2023-04-02T07:55:28;97137.31;;;10.38;77.40
58373;BME280;44177;43.356;27.672;2023-04-02T07:57:55;97143.72;;;10.53;77.29
58373;BME280;44177;43.356;27.672;2023-04-02T08:00:22;97140.16;;;10.83;76.44
58373;BME280;44177;43.356;27.672;2023-04-02T08:02:48;97143.38;;;10.92;74.97
58373;BME280;44177;43.356;27.672;2023-04-02T08:05:14;97145.78;;;11.01;74.71
58373;BME280;44177;43.356;27.672;2023-04-02T08:07:40;97136.06;;;11.03;74.04
58373;BME280;44177;43.356;27.672;2023-04-02T08:10:07;97138.19;;;11.21;73.27
58373;BME280;44177;43.356;27.672;2023-04-02T08:12:34;97124.50;;;11.69;71.71
58373;BME280;44177;43.356;27.672;2023-04-02T08:14:59;97156.13;;;12.26;70.08
58373;BME280;44177;43.356;27.672;2023-04-02T08:17:25;97144.88;;;12.53;68.59
58373;BME280;44177;43.356;27.672;2023-04-02T08:19:56;97141.50;;;13.00;67.27
58373;BME280;44177;43.356;27.672;2023-04-02T08:22:28;97150.53;;;13.25;65.51
58373;BME280;44177;43.356;27.672;2023-04-02T08:24:54;97146.19;;;12.95;65.55
58373;BME280;44177;43.356;27.672;2023-04-02T08:27:21;97150.50;;;12.97;65.41
58373;BME280;44177;43.356;27.672;2023-04-02T08:29:47;97148.09;;;12.84;66.09
58373;BME280;44177;43.356;27.672;2023-04-02T08:32:13;97171.09;;;12.61;66.78
58373;BME280;44177;43.356;27.672;2023-04-02T08:34:43;97167.47;;;12.36;68.34
58373;BME280;44177;43.356;27.672;2023-04-02T08:37:10;97173.66;;;12.18;68.42
58373;BME280;44177;43.356;27.672;2023-04-02T08:39:36;97167.34;;;12.14;68.96
58373;BME280;44177;43.356;27.672;2023-04-02T08:42:22;97183.28;;;12.01;69.60
58373;BME280;44177;43.356;27.672;2023-04-02T08:45:04;97183.25;;;11.97;69.23
58373;BME280;44177;43.356;27.672;2023-04-02T08:47:34;97171.59;;;12.00;70.39
58373;BME280;44177;43.356;27.672;2023-04-02T08:50:15;97180.13;;;11.95;69.97
58373;BME280;44177;43.356;27.672;2023-04-02T08:52:48;97179.59;;;11.75;70.28
58373;BME280;44177;43.356;27.672;2023-04-02T09:00:36;97203.19;;;11.49;72.33
58373;BME280;44177;43.356;27.672;2023-04-02T09:05:58;97203.94;;;11.50;72.22
58373;BME280;44177;43.356;27.672;2023-04-02T09:08:26;97200.41;;;11.46;72.79
58373;BME280;44177;43.356;27.672;2023-04-02T09:13:32;97192.25;;;11.49;72.00
58373;BME280;44177;43.356;27.672;2023-04-02T09:16:10;97207.13;;;11.56;71.25
58373;BME280;44177;43.356;27.672;2023-04-02T09:18:37;97206.75;;;11.57;71.86
58373;BME280;44177;43.356;27.672;2023-04-02T09:21:33;97202.38;;;11.49;72.18
58373;BME280;44177;43.356;27.672;2023-04-02T09:24:01;97222.69;;;11.48;71.69
58373;BME280;44177;43.356;27.672;2023-04-02T09:26:29;97210.25;;;11.54;72.21
58373;BME280;44177;43.356;27.672;2023-04-02T09:29:34;97221.28;;;11.68;73.03
58373;BME280;44177;43.356;27.672;2023-04-02T09:34:45;97208.41;;;12.21;70.87
58373;BME280;44177;43.356;27.672;2023-04-02T09:37:19;97214.09;;;12.57;70.84
58373;BME280;44177;43.356;27.672;2023-04-02T09:39:47;97215.59;;;12.51;70.29
58373;BME280;44177;43.356;27.672;2023-04-02T09:42:33;97223.44;;;12.53;69.75
58373;BME280;44177;43.356;27.672;2023-04-02T09:45:19;97222.69;;;12.63;69.49
58373;BME280;44177;43.356;27.672;2023-04-02T09:47:45;97221.94;;;12.70;68.42
58373;BME280;44177;43.356;27.672;2023-04-02T09:52:46;97220.34;;;12.61;65.93
58373;BME280;44177;43.356;27.672;2023-04-02T09:55:18;97219.19;;;12.62;65.68
58373;BME280;44177;43.356;27.672;2023-04-02T09:57:47;97226.25;;;12.67;67.12
58373;BME280;44177;43.356;27.672;2023-04-02T10:02:39;97238.34;;;12.62;65.63
58373;BME280;44177;43.356;27.672;2023-04-02T10:05:16;97226.63;;;12.62;65.55
58373;BME280;44177;43.356;27.672;2023-04-02T10:07:47;97233.69;;;12.67;66.31
58373;BME280;44177;43.356;27.672;2023-04-02T10:13:03;97225.53;;;12.81;65.72
58373;BME280;44177;43.356;27.672;2023-04-02T10:15:45;97236.47;;;12.81;65.63
58373;BME280;44177;43.356;27.672;2023-04-02T10:18:35;97239.25;;;12.92;65.48
58373;BME280;44177;43.356;27.672;2023-04-02T10:21:05;97247.06;;;12.93;65.68
58373;BME280;44177;43.356;27.672;2023-04-02T10:23:31;97243.56;;;12.97;67.16
58373;BME280;44177;43.356;27.672;2023-04-02T10:26:03;97250.25;;;13.06;68.41
58373;BME280;44177;43.356;27.672;2023-04-02T10:31:38;97244.47;;;13.30;65.05
58373;BME280;44177;43.356;27.672;2023-04-02T10:34:38;97252.69;;;13.33;64.74
58373;BME280;44177;43.356;27.672;2023-04-02T10:37:42;97255.84;;;13.50;65.32
58373;BME280;44177;43.356;27.672;2023-04-02T10:40:34;97266.03;;;13.60;63.47
58373;BME280;44177;43.356;27.672;2023-04-02T10:45:55;97270.78;;;13.74;60.55
58373;BME280;44177;43.356;27.672;2023-04-02T10:48:39;97269.97;;;13.70;61.32
58373;BME280;44177;43.356;27.672;2023-04-02T10:53:58;97277.81;;;13.82;62.10
58373;BME280;44177;43.356;27.672;2023-04-02T10:56:27;97286.81;;;13.79;61.10
58373;BME280;44177;43.356;27.672;2023-04-02T10:58:58;97263.31;;;13.71;61.42
58373;BME280;44177;43.356;27.672;2023-04-02T11:01:28;97275.84;;;13.72;61.27
58373;BME280;44177;43.356;27.672;2023-04-02T11:03:58;97278.59;;;13.68;61.93
58373;BME280;44177;43.356;27.672;2023-04-02T11:06:46;97281.72;;;13.70;62.13
58373;BME280;44177;43.356;27.672;2023-04-02T11:09:16;97273.91;;;13.69;63.12
58373;BME280;44177;43.356;27.672;2023-04-02T11:11:45;97269.97;;;13.77;62.92
58373;BME280;44177;43.356;27.672;2023-04-02T11:14:18;97272.34;;;13.71;62.74
58373;BME280;44177;43.356;27.672;2023-04-02T11:16:47;97265.28;;;13.60;61.93
58373;BME280;44177;43.356;27.672;2023-04-02T11:24:24;97261.25;;;13.24;63.04
58373;BME280;44177;43.356;27.672;2023-04-02T11:26:51;97279.22;;;13.18;63.27
58373;BME280;44177;43.356;27.672;2023-04-02T11:29:27;97279.22;;;13.18;63.46
58373;BME280;44177;43.356;27.672;2023-04-02T11:37:29;97285.13;;;13.27;63.05
58373;BME280;44177;43.356;27.672;2023-04-02T11:39:56;97278.16;;;13.41;62.68
58373;BME280;44177;43.356;27.672;2023-04-02T11:42:43;97285.63;;;13.55;61.81
58373;BME280;44177;43.356;27.672;2023-04-02T11:50:41;97285.66;;;13.77;61.55
58373;BME280;44177;43.356;27.672;2023-04-02T11:55:39;97291.13;;;13.77;62.60
58373;BME280;44177;43.356;27.672;2023-04-02T11:58:40;97295.03;;;13.76;63.59
58373;BME280;44177;43.356;27.672;2023-04-02T12:01:20;97297.78;;;13.86;63.92
58373;BME280;44177;43.356;27.672;2023-04-02T12:04:21;97302.50;;;13.79;63.80
58373;BME280;44177;43.356;27.672;2023-04-02T12:09:49;97307.13;;;13.53;63.34
58373;BME280;44177;43.356;27.672;2023-04-02T12:14:50;97313.00;;;13.48;64.62
58373;BME280;44177;43.356;27.672;2023-04-02T12:17:30;97305.97;;;13.54;64.92
58373;BME280;44177;43.356;27.672;2023-04-02T12:20:18;97311.47;;;13.68;63.38
58373;BME280;44177;43.356;27.672;2023-04-02T12:22:49;97313.06;;;13.84;63.78
58373;BME280;44177;43.356;27.672;2023-04-02T12:25:31;97305.66;;;13.92;64.06
58373;BME280;44177;43.356;27.672;2023-04-02T12:30:36;97304.44;;;13.85;64.18
58373;BME280;44177;43.356;27.672;2023-04-02T12:35:48;97286.78;;;13.57;63.87
58373;BME280;44177;43.356;27.672;2023-04-02T12:38:23;97298.53;;;13.54;64.22
58373;BME280;44177;43.356;27.672;2023-04-02T12:40:59;97292.66;;;13.52;64.34
58373;BME280;44177;43.356;27.672;2023-04-02T12:43:32;97299.75;;;13.68;64.83
58373;BME280;44177;43.356;27.672;2023-04-02T12:46:00;97283.63;;;14.57;63.38
58373;BME280;44177;43.356;27.672;2023-04-02T12:48:28;97290.16;;;15.13;60.36
58373;BME280;44177;43.356;27.672;2023-04-02T12:50:55;97291.69;;;15.25;59.77
58373;BME280;44177;43.356;27.672;2023-04-02T12:53:36;97293.97;;;15.41;59.54
58373;BME280;44177;43.356;27.672;2023-04-02T12:56:03;97294.38;;;15.32;58.86
58373;BME280;44177;43.356;27.672;2023-04-02T12:58:36;97301.88;;;15.32;59.23
58373;BME280;44177;43.356;27.672;2023-04-02T13:01:29;97299.09;;;15.36;59.56
58373;BME280;44177;43.356;27.672;2023-04-02T13:06:30;97303.06;;;15.94;58.84
58373;BME280;44177;43.356;27.672;2023-04-02T13:08:56;97299.31;;;16.68;57.25
58373;BME280;44177;43.356;27.672;2023-04-02T13:11:35;97297.72;;;16.71;56.59
58373;BME280;44177;43.356;27.672;2023-04-02T13:14:04;97298.31;;;16.86;55.37
58373;BME280;44177;43.356;27.672;2023-04-02T13:16:38;97294.44;;;16.80;54.73
58373;BME280;44177;43.356;27.672;2023-04-02T13:21:34;97293.69;;;16.79;55.05
58373;BME280;44177;43.356;27.672;2023-04-02T13:24:00;97289.78;;;16.77;55.47
58373;BME280;44177;43.356;27.672;2023-04-02T13:26:27;97287.13;;;16.66;54.66
58373;BME280;44177;43.356;27.672;2023-04-02T13:29:01;97295.72;;;16.30;56.87
58373;BME280;44177;43.356;27.672;2023-04-02T13:31:28;97290.63;;;16.70;56.34
58373;BME280;44177;43.356;27.672;2023-04-02T13:33:54;97287.03;;;16.77;55.57
58373;BME280;44177;43.356;27.672;2023-04-02T13:36:20;97286.81;;;16.98;55.45
58373;BME280;44177;43.356;27.672;2023-04-02T13:38:45;97291.09;;;17.03;54.24
58373;BME280;44177;43.356;27.672;2023-04-02T13:41:24;97289.56;;;16.98;55.10
58373;BME280;44177;43.356;27.672;2023-04-02T13:43:51;97292.06;;;16.82;55.05
58373;BME280;44177;43.356;27.672;2023-04-02T13:46:29;97299.16;;;16.83;55.14
58373;BME280;44177;43.356;27.672;2023-04-02T13:48:55;97298.53;;;16.64;55.16
58373;BME280;44177;43.356;27.672;2023-04-02T13:51:45;97302.41;;;16.29;55.66
58373;BME280;44177;43.356;27.672;2023-04-02T13:54:32;97295.00;;;16.22;55.58
58373;BME280;44177;43.356;27.672;2023-04-02T13:57:00;97277.94;;;15.96;55.34
58373;BME280;44177;43.356;27.672;2023-04-02T13:59:25;97293.63;;;15.95;56.98
58373;BME280;44177;43.356;27.672;2023-04-02T14:01:54;97284.97;;;16.01;56.66
58373;BME280;44177;43.356;27.672;2023-04-02T14:04:27;97295.13;;;16.07;56.19
58373;BME280;44177;43.356;27.672;2023-04-02T14:09:50;97289.56;;;16.15;56.08
58373;BME280;44177;43.356;27.672;2023-04-02T14:15:14;97286.53;;;16.02;58.06
58373;BME280;44177;43.356;27.672;2023-04-02T14:26:59;97289.41;;;15.84;57.02
58373;BME280;44177;43.356;27.672;2023-04-02T14:43:10;97302.75;;;15.89;56.98
58373;BME280;44177;43.356;27.672;2023-04-02T14:45:49;97293.75;;;15.77;58.09
58373;BME280;44177;43.356;27.672;2023-04-02T14:51:05;97303.31;;;15.55;58.58
58373;BME280;44177;43.356;27.672;2023-04-02T14:53:50;97287.59;;;15.55;57.64
58373;BME280;44177;43.356;27.672;2023-04-02T14:56:20;97289.56;;;15.55;58.47
58373;BME280;44177;43.356;27.672;2023-04-02T14:58:50;97282.06;;;15.59;58.57
58373;BME280;44177;43.356;27.672;2023-04-02T15:01:30;97293.81;;;15.67;57.90
58373;BME280;44177;43.356;27.672;2023-04-02T15:04:02;97284.81;;;15.59;58.71
58373;BME280;44177;43.356;27.672;2023-04-02T15:06:33;97277.09;;;15.39;59.10
58373;BME280;44177;43.356;27.672;2023-04-02T15:09:14;97294.72;;;15.45;59.47
58373;BME280;44177;43.356;27.672;2023-04-02T15:11:48;97283.72;;;15.45;60.19
58373;BME280;44177;43.356;27.672;2023-04-02T15:14:26;97295.53;;;15.42;59.31
58373;BME280;44177;43.356;27.672;2023-04-02T15:16:52;97294.00;;;15.34;59.93
58373;BME280;44177;43.356;27.672;2023-04-02T15:19:18;97301.09;;;15.28;59.91
58373;BME280;44177;43.356;27.672;2023-04-02T15:27:20;97303.47;;;15.26;61.26
58373;BME280;44177;43.356;27.672;2023-04-02T15:32:34;97293.28;;;15.19;61.00
58373;BME280;44177;43.356;27.672;2023-04-02T15:35:09;97305.84;;;15.20;60.44
58373;BME280;44177;43.356;27.672;2023-04-02T15:45:58;97317.28;;;14.97;61.62
58373;BME280;44177;43.356;27.672;2023-04-02T15:59:48;97327.94;;;14.73;63.50
58373;BME280;44177;43.356;27.672;2023-04-02T16:11:01;97327.97;;;14.44;65.83
58373;BME280;44177;43.356;27.672;2023-04-02T16:13:35;97336.97;;;14.37;66.09
58373;BME280;44177;43.356;27.672;2023-04-02T16:16:05;97338.16;;;14.33;66.31
58373;BME280;44177;43.356;27.672;2023-04-02T16:21:25;97342.88;;;14.18;66.85
58373;BME280;44177;43.356;27.672;2023-04-02T16:23:52;97331.09;;;14.03;66.64
58373;BME280;44177;43.356;27.672;2023-04-02T16:26:28;97347.94;;;13.90;65.88
58373;BME280;44177;43.356;27.672;2023-04-02T16:34:58;97357.41;;;13.05;68.35
58373;BME280;44177;43.356;27.672;2023-04-02T16:37:38;97355.00;;;12.92;68.93
58373;BME280;44177;43.356;27.672;2023-04-02T16:40:25;97353.06;;;12.93;69.70
58373;BME280;44177;43.356;27.672;2023-04-02T16:50:39;97375.47;;;12.54;70.42
58373;BME280;44177;43.356;27.672;2023-04-02T17:06:42;97386.47;;;11.78;69.96
58373;BME280;44177;43.356;27.672;2023-04-02T17:09:18;97386.78;;;11.69;70.93
58373;BME280;44177;43.356;27.672;2023-04-02T17:14:59;97403.94;;;11.05;74.78
58373;BME280;44177;43.356;27.672;2023-04-02T17:17:26;97396.72;;;10.90;74.79
58373;BME280;44177;43.356;27.672;2023-04-02T17:19:55;97409.94;;;10.88;74.45
58373;BME280;44177;43.356;27.672;2023-04-02T17:22:22;97405.22;;;10.85;73.45
58373;BME280;44177;43.356;27.672;2023-04-02T17:24:59;97418.00;;;10.81;73.36
58373;BME280;44177;43.356;27.672;2023-04-02T17:27:31;97407.31;;;10.45;74.41
58373;BME280;44177;43.356;27.672;2023-04-02T17:30:04;97409.00;;;10.30;74.49